Аэропорт: Ош. Ош

ICAO: UAFO

METAR:
2013/03/31 08:30
UAFO 310830Z 28006MPS 9999 FEW040 BKN100 18/06 Q1017 R12/CLRD70 TEMPO 27009MPS 
METAR:
2013/03/30 18:59
TAF UAFO 301600Z 3018/3118 17005MPS 6000 SCT050 
      TEMPO 3018/3024 26007MPS 1500 BR FU 
      BECMG 3102/3104 27005MPS 30/03/13 ADANOV